sensor_id;sensor_type;location;lat;lon;timestamp;P1;durP1;ratioP1;P2;durP2;ratioP2
15633;SDS011;14654;48.898;8.308;2024-03-22T00:00:30;5.93;;;5.40;;
15633;SDS011;14654;48.898;8.308;2024-03-22T00:02:55;6.27;;;5.70;;
15633;SDS011;14654;48.898;8.308;2024-03-22T00:05:20;6.43;;;5.83;;
15633;SDS011;14654;48.898;8.308;2024-03-22T00:07:46;7.27;;;6.60;;
15633;SDS011;14654;48.898;8.308;2024-03-22T00:10:12;5.80;;;5.30;;
15633;SDS011;14654;48.898;8.308;2024-03-22T00:12:38;6.00;;;5.50;;
15633;SDS011;14654;48.898;8.308;2024-03-22T00:15:04;6.50;;;5.90;;
15633;SDS011;14654;48.898;8.308;2024-03-22T00:17:30;6.47;;;5.87;;
15633;SDS011;14654;48.898;8.308;2024-03-22T00:19:56;6.57;;;5.97;;
15633;SDS011;14654;48.898;8.308;2024-03-22T00:22:21;6.00;;;5.40;;
15633;SDS011;14654;48.898;8.308;2024-03-22T00:24:47;6.30;;;5.70;;
15633;SDS011;14654;48.898;8.308;2024-03-22T00:27:12;6.53;;;5.93;;
15633;SDS011;14654;48.898;8.308;2024-03-22T00:29:37;6.60;;;6.00;;
15633;SDS011;14654;48.898;8.308;2024-03-22T00:32:03;6.63;;;6.13;;
15633;SDS011;14654;48.898;8.308;2024-03-22T00:34:29;6.07;;;5.57;;
15633;SDS011;14654;48.898;8.308;2024-03-22T00:36:54;7.10;;;6.50;;
15633;SDS011;14654;48.898;8.308;2024-03-22T00:39:19;7.10;;;6.37;;
15633;SDS011;14654;48.898;8.308;2024-03-22T00:41:45;6.53;;;5.93;;
15633;SDS011;14654;48.898;8.308;2024-03-22T00:44:10;6.23;;;5.70;;
15633;SDS011;14654;48.898;8.308;2024-03-22T00:46:35;6.33;;;5.73;;
15633;SDS011;14654;48.898;8.308;2024-03-22T00:49:01;6.47;;;5.87;;
15633;SDS011;14654;48.898;8.308;2024-03-22T00:51:26;6.10;;;5.60;;
15633;SDS011;14654;48.898;8.308;2024-03-22T00:53:52;5.40;;;4.90;;
15633;SDS011;14654;48.898;8.308;2024-03-22T00:56:18;5.90;;;5.33;;
15633;SDS011;14654;48.898;8.308;2024-03-22T00:58:43;7.40;;;5.97;;
15633;SDS011;14654;48.898;8.308;2024-03-22T01:01:08;6.13;;;5.53;;
15633;SDS011;14654;48.898;8.308;2024-03-22T01:03:34;6.33;;;5.83;;
15633;SDS011;14654;48.898;8.308;2024-03-22T01:05:59;6.73;;;6.03;;
15633;SDS011;14654;48.898;8.308;2024-03-22T01:08:24;12.43;;;8.03;;
15633;SDS011;14654;48.898;8.308;2024-03-22T01:10:50;7.97;;;7.17;;
15633;SDS011;14654;48.898;8.308;2024-03-22T01:13:16;7.33;;;6.63;;
15633;SDS011;14654;48.898;8.308;2024-03-22T01:15:41;7.03;;;6.33;;
15633;SDS011;14654;48.898;8.308;2024-03-22T01:18:08;5.70;;;5.20;;
15633;SDS011;14654;48.898;8.308;2024-03-22T01:20:33;7.17;;;6.17;;
15633;SDS011;14654;48.898;8.308;2024-03-22T01:23:01;6.40;;;5.80;;
15633;SDS011;14654;48.898;8.308;2024-03-22T01:25:27;6.03;;;5.53;;
15633;SDS011;14654;48.898;8.308;2024-03-22T01:27:52;6.13;;;5.63;;
15633;SDS011;14654;48.898;8.308;2024-03-22T01:30:18;5.60;;;5.20;;
15633;SDS011;14654;48.898;8.308;2024-03-22T01:32:43;6.37;;;5.67;;
15633;SDS011;14654;48.898;8.308;2024-03-22T01:35:08;6.10;;;5.50;;
15633;SDS011;14654;48.898;8.308;2024-03-22T01:37:34;6.40;;;5.20;;
15633;SDS011;14654;48.898;8.308;2024-03-22T01:39:59;6.50;;;5.80;;
15633;SDS011;14654;48.898;8.308;2024-03-22T01:42:24;6.97;;;5.90;;
15633;SDS011;14654;48.898;8.308;2024-03-22T01:44:50;6.40;;;5.90;;
15633;SDS011;14654;48.898;8.308;2024-03-22T01:47:15;6.30;;;5.70;;
15633;SDS011;14654;48.898;8.308;2024-03-22T01:49:42;6.03;;;5.50;;
15633;SDS011;14654;48.898;8.308;2024-03-22T01:52:08;6.30;;;5.80;;
15633;SDS011;14654;48.898;8.308;2024-03-22T01:54:33;6.13;;;5.37;;
15633;SDS011;14654;48.898;8.308;2024-03-22T01:56:58;6.37;;;5.87;;
15633;SDS011;14654;48.898;8.308;2024-03-22T01:59:24;5.57;;;5.13;;
15633;SDS011;14654;48.898;8.308;2024-03-22T02:01:50;6.17;;;5.53;;
15633;SDS011;14654;48.898;8.308;2024-03-22T02:04:16;6.00;;;5.50;;
15633;SDS011;14654;48.898;8.308;2024-03-22T02:06:41;6.53;;;5.93;;
15633;SDS011;14654;48.898;8.308;2024-03-22T02:09:07;6.00;;;5.50;;
15633;SDS011;14654;48.898;8.308;2024-03-22T02:11:34;5.77;;;5.27;;
15633;SDS011;14654;48.898;8.308;2024-03-22T02:14:01;5.30;;;4.90;;
15633;SDS011;14654;48.898;8.308;2024-03-22T02:16:26;5.67;;;5.07;;
15633;SDS011;14654;48.898;8.308;2024-03-22T02:18:51;5.37;;;4.97;;
15633;SDS011;14654;48.898;8.308;2024-03-22T02:21:17;5.60;;;5.00;;
15633;SDS011;14654;48.898;8.308;2024-03-22T02:23:42;5.07;;;4.60;;
15633;SDS011;14654;48.898;8.308;2024-03-22T02:26:07;5.37;;;4.67;;
15633;SDS011;14654;48.898;8.308;2024-03-22T02:28:33;5.60;;;5.03;;
15633;SDS011;14654;48.898;8.308;2024-03-22T02:31:00;5.33;;;4.83;;
15633;SDS011;14654;48.898;8.308;2024-03-22T02:33:26;5.33;;;4.83;;
15633;SDS011;14654;48.898;8.308;2024-03-22T02:35:51;5.20;;;4.73;;
15633;SDS011;14654;48.898;8.308;2024-03-22T02:38:17;4.47;;;4.07;;
15633;SDS011;14654;48.898;8.308;2024-03-22T02:40:43;4.57;;;4.20;;
15633;SDS011;14654;48.898;8.308;2024-03-22T02:43:09;5.30;;;4.80;;
15633;SDS011;14654;48.898;8.308;2024-03-22T02:45:34;5.03;;;4.63;;
15633;SDS011;14654;48.898;8.308;2024-03-22T02:48:00;6.00;;;4.77;;
15633;SDS011;14654;48.898;8.308;2024-03-22T02:50:25;5.73;;;5.23;;
15633;SDS011;14654;48.898;8.308;2024-03-22T02:52:50;4.90;;;4.50;;
15633;SDS011;14654;48.898;8.308;2024-03-22T02:55:16;5.47;;;4.53;;
15633;SDS011;14654;48.898;8.308;2024-03-22T02:57:41;5.17;;;4.77;;
15633;SDS011;14654;48.898;8.308;2024-03-22T03:00:07;6.40;;;5.33;;
15633;SDS011;14654;48.898;8.308;2024-03-22T03:02:32;4.73;;;4.33;;
15633;SDS011;14654;48.898;8.308;2024-03-22T03:04:58;4.70;;;4.30;;
15633;SDS011;14654;48.898;8.308;2024-03-22T03:07:26;5.40;;;4.90;;
15633;SDS011;14654;48.898;8.308;2024-03-22T03:09:52;5.20;;;4.80;;
15633;SDS011;14654;48.898;8.308;2024-03-22T03:12:18;5.33;;;4.83;;
15633;SDS011;14654;48.898;8.308;2024-03-22T03:14:43;5.37;;;4.90;;
15633;SDS011;14654;48.898;8.308;2024-03-22T03:17:08;6.03;;;5.10;;
15633;SDS011;14654;48.898;8.308;2024-03-22T03:19:33;5.00;;;4.60;;
15633;SDS011;14654;48.898;8.308;2024-03-22T03:21:59;5.30;;;4.53;;
15633;SDS011;14654;48.898;8.308;2024-03-22T03:24:24;4.77;;;4.43;;
15633;SDS011;14654;48.898;8.308;2024-03-22T03:26:49;4.97;;;4.57;;
15633;SDS011;14654;48.898;8.308;2024-03-22T03:29:15;4.87;;;4.37;;
15633;SDS011;14654;48.898;8.308;2024-03-22T03:31:40;4.93;;;4.53;;
15633;SDS011;14654;48.898;8.308;2024-03-22T03:34:05;6.47;;;5.70;;
15633;SDS011;14654;48.898;8.308;2024-03-22T03:36:31;7.43;;;6.73;;
15633;SDS011;14654;48.898;8.308;2024-03-22T03:38:56;7.43;;;6.27;;
15633;SDS011;14654;48.898;8.308;2024-03-22T03:41:22;6.60;;;6.00;;
15633;SDS011;14654;48.898;8.308;2024-03-22T03:43:47;6.10;;;5.60;;
15633;SDS011;14654;48.898;8.308;2024-03-22T03:46:12;5.80;;;5.20;;
15633;SDS011;14654;48.898;8.308;2024-03-22T03:48:38;6.60;;;5.77;;
15633;SDS011;14654;48.898;8.308;2024-03-22T03:51:03;6.20;;;5.60;;
15633;SDS011;14654;48.898;8.308;2024-03-22T03:53:30;6.07;;;5.47;;
15633;SDS011;14654;48.898;8.308;2024-03-22T03:55:55;5.83;;;5.27;;
15633;SDS011;14654;48.898;8.308;2024-03-22T03:58:21;4.63;;;4.27;;
15633;SDS011;14654;48.898;8.308;2024-03-22T04:00:46;5.33;;;4.63;;
15633;SDS011;14654;48.898;8.308;2024-03-22T04:03:11;5.73;;;5.27;;
15633;SDS011;14654;48.898;8.308;2024-03-22T04:05:37;5.70;;;5.20;;
15633;SDS011;14654;48.898;8.308;2024-03-22T04:08:02;5.27;;;4.77;;
15633;SDS011;14654;48.898;8.308;2024-03-22T04:10:28;5.27;;;4.80;;
15633;SDS011;14654;48.898;8.308;2024-03-22T04:12:53;6.37;;;5.77;;
15633;SDS011;14654;48.898;8.308;2024-03-22T04:15:19;9.83;;;6.43;;
15633;SDS011;14654;48.898;8.308;2024-03-22T04:17:44;6.77;;;5.80;;
15633;SDS011;14654;48.898;8.308;2024-03-22T04:20:09;6.83;;;5.70;;
15633;SDS011;14654;48.898;8.308;2024-03-22T04:22:36;8.10;;;6.30;;
15633;SDS011;14654;48.898;8.308;2024-03-22T04:25:01;6.67;;;5.90;;
15633;SDS011;14654;48.898;8.308;2024-03-22T04:27:27;5.93;;;5.43;;
15633;SDS011;14654;48.898;8.308;2024-03-22T04:29:52;6.03;;;5.30;;
15633;SDS011;14654;48.898;8.308;2024-03-22T04:32:18;6.27;;;5.53;;
15633;SDS011;14654;48.898;8.308;2024-03-22T04:34:43;7.93;;;5.90;;
15633;SDS011;14654;48.898;8.308;2024-03-22T04:37:09;5.60;;;5.10;;
15633;SDS011;14654;48.898;8.308;2024-03-22T04:39:34;5.90;;;5.40;;
15633;SDS011;14654;48.898;8.308;2024-03-22T04:42:01;5.33;;;4.93;;
15633;SDS011;14654;48.898;8.308;2024-03-22T04:44:26;5.60;;;5.10;;
15633;SDS011;14654;48.898;8.308;2024-03-22T04:46:52;5.13;;;4.73;;
15633;SDS011;14654;48.898;8.308;2024-03-22T04:49:17;5.27;;;4.73;;
15633;SDS011;14654;48.898;8.308;2024-03-22T04:51:42;4.87;;;4.47;;
15633;SDS011;14654;48.898;8.308;2024-03-22T04:54:08;5.60;;;5.10;;
15633;SDS011;14654;48.898;8.308;2024-03-22T04:56:33;6.23;;;4.60;;
15633;SDS011;14654;48.898;8.308;2024-03-22T04:58:58;5.63;;;5.03;;
15633;SDS011;14654;48.898;8.308;2024-03-22T05:01:23;4.83;;;4.33;;
15633;SDS011;14654;48.898;8.308;2024-03-22T05:03:49;5.70;;;5.20;;
15633;SDS011;14654;48.898;8.308;2024-03-22T05:06:15;5.77;;;5.10;;
15633;SDS011;14654;48.898;8.308;2024-03-22T05:08:40;8.00;;;5.30;;
15633;SDS011;14654;48.898;8.308;2024-03-22T05:11:06;5.30;;;4.80;;
15633;SDS011;14654;48.898;8.308;2024-03-22T05:13:32;6.07;;;5.10;;
15633;SDS011;14654;48.898;8.308;2024-03-22T05:15:57;5.27;;;4.77;;
15633;SDS011;14654;48.898;8.308;2024-03-22T05:18:23;5.63;;;5.03;;
15633;SDS011;14654;48.898;8.308;2024-03-22T05:20:48;5.50;;;5.00;;
15633;SDS011;14654;48.898;8.308;2024-03-22T05:23:13;5.07;;;4.57;;
15633;SDS011;14654;48.898;8.308;2024-03-22T05:25:41;5.20;;;4.70;;
15633;SDS011;14654;48.898;8.308;2024-03-22T05:28:06;5.53;;;4.97;;
15633;SDS011;14654;48.898;8.308;2024-03-22T05:30:31;4.97;;;4.47;;
15633;SDS011;14654;48.898;8.308;2024-03-22T05:32:57;4.70;;;4.30;;
15633;SDS011;14654;48.898;8.308;2024-03-22T05:35:23;4.47;;;4.07;;
15633;SDS011;14654;48.898;8.308;2024-03-22T05:37:48;4.87;;;4.00;;
15633;SDS011;14654;48.898;8.308;2024-03-22T05:40:14;4.53;;;4.10;;
15633;SDS011;14654;48.898;8.308;2024-03-22T05:42:41;5.43;;;4.23;;
15633;SDS011;14654;48.898;8.308;2024-03-22T05:45:06;4.53;;;3.93;;
15633;SDS011;14654;48.898;8.308;2024-03-22T05:47:31;4.27;;;3.97;;
15633;SDS011;14654;48.898;8.308;2024-03-22T05:49:58;4.30;;;3.90;;
15633;SDS011;14654;48.898;8.308;2024-03-22T05:52:23;5.33;;;3.77;;
15633;SDS011;14654;48.898;8.308;2024-03-22T05:54:49;3.90;;;3.60;;
15633;SDS011;14654;48.898;8.308;2024-03-22T05:57:14;4.60;;;4.00;;
15633;SDS011;14654;48.898;8.308;2024-03-22T05:59:39;7.90;;;6.13;;
15633;SDS011;14654;48.898;8.308;2024-03-22T06:02:05;20.30;;;13.00;;
15633;SDS011;14654;48.898;8.308;2024-03-22T06:04:30;23.10;;;15.30;;
15633;SDS011;14654;48.898;8.308;2024-03-22T06:06:56;15.33;;;11.40;;
15633;SDS011;14654;48.898;8.308;2024-03-22T06:09:24;12.20;;;9.77;;
15633;SDS011;14654;48.898;8.308;2024-03-22T06:11:59;7.90;;;6.67;;
15633;SDS011;14654;48.898;8.308;2024-03-22T06:14:25;5.03;;;4.53;;
15633;SDS011;14654;48.898;8.308;2024-03-22T06:16:50;4.20;;;3.80;;
15633;SDS011;14654;48.898;8.308;2024-03-22T06:19:16;4.07;;;3.67;;
15633;SDS011;14654;48.898;8.308;2024-03-22T06:21:41;4.40;;;4.03;;
15633;SDS011;14654;48.898;8.308;2024-03-22T06:24:06;3.90;;;3.50;;
15633;SDS011;14654;48.898;8.308;2024-03-22T06:26:32;3.27;;;3.00;;
15633;SDS011;14654;48.898;8.308;2024-03-22T06:28:57;6.73;;;3.50;;
15633;SDS011;14654;48.898;8.308;2024-03-22T06:31:22;3.93;;;3.53;;
15633;SDS011;14654;48.898;8.308;2024-03-22T06:33:48;3.17;;;2.97;;
15633;SDS011;14654;48.898;8.308;2024-03-22T06:36:13;3.13;;;2.93;;
15633;SDS011;14654;48.898;8.308;2024-03-22T06:38:38;3.57;;;3.27;;
15633;SDS011;14654;48.898;8.308;2024-03-22T06:41:04;3.10;;;2.90;;
15633;SDS011;14654;48.898;8.308;2024-03-22T06:43:29;3.33;;;2.90;;
15633;SDS011;14654;48.898;8.308;2024-03-22T06:45:54;3.10;;;2.80;;
15633;SDS011;14654;48.898;8.308;2024-03-22T06:48:20;3.23;;;2.80;;
15633;SDS011;14654;48.898;8.308;2024-03-22T06:50:45;3.30;;;2.83;;
15633;SDS011;14654;48.898;8.308;2024-03-22T06:53:11;2.93;;;2.60;;
15633;SDS011;14654;48.898;8.308;2024-03-22T06:55:36;4.47;;;2.97;;
15633;SDS011;14654;48.898;8.308;2024-03-22T06:58:02;3.30;;;3.00;;
15633;SDS011;14654;48.898;8.308;2024-03-22T07:00:27;3.37;;;3.07;;
15633;SDS011;14654;48.898;8.308;2024-03-22T07:02:53;3.47;;;3.20;;
15633;SDS011;14654;48.898;8.308;2024-03-22T07:05:20;3.70;;;3.40;;
15633;SDS011;14654;48.898;8.308;2024-03-22T07:07:46;4.03;;;3.73;;
15633;SDS011;14654;48.898;8.308;2024-03-22T07:10:12;4.00;;;3.70;;
15633;SDS011;14654;48.898;8.308;2024-03-22T07:12:37;4.07;;;3.73;;
15633;SDS011;14654;48.898;8.308;2024-03-22T07:15:02;4.00;;;3.60;;
15633;SDS011;14654;48.898;8.308;2024-03-22T07:17:29;3.80;;;3.50;;
15633;SDS011;14654;48.898;8.308;2024-03-22T07:19:54;4.70;;;3.53;;
15633;SDS011;14654;48.898;8.308;2024-03-22T07:22:20;4.20;;;3.90;;
15633;SDS011;14654;48.898;8.308;2024-03-22T07:24:45;3.87;;;3.57;;
15633;SDS011;14654;48.898;8.308;2024-03-22T07:27:12;3.53;;;3.23;;
15633;SDS011;14654;48.898;8.308;2024-03-22T07:29:37;3.50;;;3.20;;
15633;SDS011;14654;48.898;8.308;2024-03-22T07:32:03;3.67;;;3.37;;
15633;SDS011;14654;48.898;8.308;2024-03-22T07:34:28;3.93;;;3.33;;
15633;SDS011;14654;48.898;8.308;2024-03-22T07:36:54;4.73;;;3.50;;
15633;SDS011;14654;48.898;8.308;2024-03-22T07:39:19;4.47;;;4.07;;
15633;SDS011;14654;48.898;8.308;2024-03-22T07:41:44;3.73;;;3.20;;
15633;SDS011;14654;48.898;8.308;2024-03-22T07:44:10;4.00;;;3.67;;
15633;SDS011;14654;48.898;8.308;2024-03-22T07:46:36;5.23;;;4.73;;
15633;SDS011;14654;48.898;8.308;2024-03-22T07:49:01;8.17;;;5.23;;
15633;SDS011;14654;48.898;8.308;2024-03-22T07:51:29;4.60;;;4.20;;
15633;SDS011;14654;48.898;8.308;2024-03-22T07:53:54;5.37;;;4.47;;
15633;SDS011;14654;48.898;8.308;2024-03-22T07:56:19;5.97;;;4.67;;
15633;SDS011;14654;48.898;8.308;2024-03-22T07:58:45;5.20;;;4.53;;
15633;SDS011;14654;48.898;8.308;2024-03-22T08:01:10;4.37;;;4.07;;
15633;SDS011;14654;48.898;8.308;2024-03-22T08:03:35;4.87;;;4.40;;
15633;SDS011;14654;48.898;8.308;2024-03-22T08:06:00;4.77;;;4.27;;
15633;SDS011;14654;48.898;8.308;2024-03-22T08:08:26;5.03;;;4.63;;
15633;SDS011;14654;48.898;8.308;2024-03-22T08:10:51;6.53;;;4.33;;
15633;SDS011;14654;48.898;8.308;2024-03-22T08:13:17;6.07;;;5.27;;
15633;SDS011;14654;48.898;8.308;2024-03-22T08:15:42;5.53;;;4.90;;
15633;SDS011;14654;48.898;8.308;2024-03-22T08:18:08;5.53;;;5.03;;
15633;SDS011;14654;48.898;8.308;2024-03-22T08:20:34;5.10;;;4.60;;
15633;SDS011;14654;48.898;8.308;2024-03-22T08:22:59;7.37;;;5.37;;
15633;SDS011;14654;48.898;8.308;2024-03-22T08:25:25;5.60;;;5.10;;
15633;SDS011;14654;48.898;8.308;2024-03-22T08:27:50;6.17;;;5.40;;
15633;SDS011;14654;48.898;8.308;2024-03-22T08:30:20;6.43;;;5.77;;
15633;SDS011;14654;48.898;8.308;2024-03-22T08:32:45;5.17;;;4.77;;
15633;SDS011;14654;48.898;8.308;2024-03-22T08:35:10;6.37;;;5.77;;
15633;SDS011;14654;48.898;8.308;2024-03-22T08:37:36;6.30;;;5.80;;
15633;SDS011;14654;48.898;8.308;2024-03-22T08:40:01;6.37;;;5.77;;
15633;SDS011;14654;48.898;8.308;2024-03-22T08:42:29;5.93;;;5.33;;
15633;SDS011;14654;48.898;8.308;2024-03-22T08:44:54;6.83;;;5.60;;
15633;SDS011;14654;48.898;8.308;2024-03-22T08:47:20;4.60;;;4.20;;
15633;SDS011;14654;48.898;8.308;2024-03-22T08:49:45;5.30;;;4.80;;
15633;SDS011;14654;48.898;8.308;2024-03-22T08:52:11;6.30;;;5.10;;
15633;SDS011;14654;48.898;8.308;2024-03-22T08:54:36;6.33;;;5.20;;
15633;SDS011;14654;48.898;8.308;2024-03-22T08:57:01;5.43;;;4.67;;
15633;SDS011;14654;48.898;8.308;2024-03-22T08:59:27;5.40;;;4.63;;
15633;SDS011;14654;48.898;8.308;2024-03-22T09:01:52;4.83;;;4.47;;
15633;SDS011;14654;48.898;8.308;2024-03-22T09:04:18;5.53;;;5.03;;
15633;SDS011;14654;48.898;8.308;2024-03-22T09:06:43;5.40;;;4.77;;
15633;SDS011;14654;48.898;8.308;2024-03-22T09:09:10;4.27;;;3.87;;
15633;SDS011;14654;48.898;8.308;2024-03-22T09:11:36;5.27;;;4.80;;
15633;SDS011;14654;48.898;8.308;2024-03-22T09:14:01;5.50;;;5.00;;
15633;SDS011;14654;48.898;8.308;2024-03-22T09:16:27;4.50;;;4.10;;
15633;SDS011;14654;48.898;8.308;2024-03-22T09:18:52;5.17;;;4.07;;
15633;SDS011;14654;48.898;8.308;2024-03-22T09:21:17;4.97;;;4.20;;
15633;SDS011;14654;48.898;8.308;2024-03-22T09:23:42;4.70;;;4.30;;
15633;SDS011;14654;48.898;8.308;2024-03-22T09:26:08;4.90;;;4.50;;
15633;SDS011;14654;48.898;8.308;2024-03-22T09:28:34;7.17;;;4.40;;
15633;SDS011;14654;48.898;8.308;2024-03-22T09:31:05;5.33;;;4.83;;
15633;SDS011;14654;48.898;8.308;2024-03-22T09:33:34;5.87;;;4.30;;
15633;SDS011;14654;48.898;8.308;2024-03-22T09:36:00;4.90;;;4.40;;
15633;SDS011;14654;48.898;8.308;2024-03-22T09:38:26;6.83;;;5.00;;
15633;SDS011;14654;48.898;8.308;2024-03-22T09:40:51;5.23;;;4.73;;
15633;SDS011;14654;48.898;8.308;2024-03-22T09:43:19;4.73;;;4.33;;
15633;SDS011;14654;48.898;8.308;2024-03-22T09:45:49;6.43;;;4.27;;
15633;SDS011;14654;48.898;8.308;2024-03-22T09:48:15;4.60;;;4.20;;
15633;SDS011;14654;48.898;8.308;2024-03-22T09:50:42;5.27;;;4.77;;
15633;SDS011;14654;48.898;8.308;2024-03-22T09:53:10;3.60;;;3.30;;
15633;SDS011;14654;48.898;8.308;2024-03-22T09:55:37;4.73;;;3.77;;
15633;SDS011;14654;48.898;8.308;2024-03-22T09:58:04;5.13;;;3.93;;
15633;SDS011;14654;48.898;8.308;2024-03-22T10:00:30;5.13;;;4.63;;
15633;SDS011;14654;48.898;8.308;2024-03-22T10:02:56;4.40;;;4.00;;
15633;SDS011;14654;48.898;8.308;2024-03-22T10:05:22;5.27;;;4.40;;
15633;SDS011;14654;48.898;8.308;2024-03-22T10:07:47;3.30;;;3.00;;
15633;SDS011;14654;48.898;8.308;2024-03-22T10:10:12;4.13;;;3.73;;
15633;SDS011;14654;48.898;8.308;2024-03-22T10:12:39;5.07;;;4.33;;
15633;SDS011;14654;48.898;8.308;2024-03-22T10:15:05;6.67;;;5.40;;
15633;SDS011;14654;48.898;8.308;2024-03-22T10:17:33;9.30;;;7.80;;
15633;SDS011;14654;48.898;8.308;2024-03-22T10:19:59;7.40;;;6.70;;
15633;SDS011;14654;48.898;8.308;2024-03-22T10:22:25;5.63;;;5.13;;
15633;SDS011;14654;48.898;8.308;2024-03-22T10:24:50;3.97;;;3.67;;
15633;SDS011;14654;48.898;8.308;2024-03-22T10:27:16;4.17;;;3.77;;
15633;SDS011;14654;48.898;8.308;2024-03-22T10:29:43;4.63;;;4.10;;
15633;SDS011;14654;48.898;8.308;2024-03-22T10:32:08;4.30;;;3.90;;
15633;SDS011;14654;48.898;8.308;2024-03-22T10:34:35;4.07;;;3.67;;
15633;SDS011;14654;48.898;8.308;2024-03-22T10:37:00;5.00;;;4.33;;
15633;SDS011;14654;48.898;8.308;2024-03-22T10:39:28;4.63;;;3.80;;
15633;SDS011;14654;48.898;8.308;2024-03-22T10:41:55;5.07;;;4.57;;
15633;SDS011;14654;48.898;8.308;2024-03-22T10:44:21;8.23;;;6.23;;
15633;SDS011;14654;48.898;8.308;2024-03-22T10:46:47;5.63;;;4.87;;
15633;SDS011;14654;48.898;8.308;2024-03-22T10:49:17;5.53;;;4.23;;
15633;SDS011;14654;48.898;8.308;2024-03-22T10:51:45;4.27;;;3.70;;
15633;SDS011;14654;48.898;8.308;2024-03-22T10:54:13;4.43;;;3.40;;
15633;SDS011;14654;48.898;8.308;2024-03-22T10:56:44;5.97;;;4.50;;
15633;SDS011;14654;48.898;8.308;2024-03-22T10:59:13;4.03;;;3.40;;
15633;SDS011;14654;48.898;8.308;2024-03-22T11:01:48;4.40;;;3.80;;
15633;SDS011;14654;48.898;8.308;2024-03-22T11:04:17;5.07;;;4.20;;
15633;SDS011;14654;48.898;8.308;2024-03-22T11:06:48;4.77;;;3.93;;
15633;SDS011;14654;48.898;8.308;2024-03-22T11:09:26;4.20;;;3.67;;
15633;SDS011;14654;48.898;8.308;2024-03-22T11:11:52;4.67;;;3.70;;
15633;SDS011;14654;48.898;8.308;2024-03-22T11:14:18;3.80;;;3.30;;
15633;SDS011;14654;48.898;8.308;2024-03-22T11:16:45;4.27;;;3.20;;
15633;SDS011;14654;48.898;8.308;2024-03-22T11:19:11;4.97;;;3.37;;
15633;SDS011;14654;48.898;8.308;2024-03-22T11:21:37;3.67;;;3.37;;
15633;SDS011;14654;48.898;8.308;2024-03-22T11:24:03;5.07;;;3.03;;
15633;SDS011;14654;48.898;8.308;2024-03-22T11:26:30;4.83;;;3.37;;
15633;SDS011;14654;48.898;8.308;2024-03-22T11:28:55;3.57;;;3.27;;
15633;SDS011;14654;48.898;8.308;2024-03-22T11:31:21;4.70;;;3.60;;
15633;SDS011;14654;48.898;8.308;2024-03-22T11:33:52;4.00;;;3.60;;
15633;SDS011;14654;48.898;8.308;2024-03-22T11:36:18;4.93;;;3.20;;
15633;SDS011;14654;48.898;8.308;2024-03-22T11:38:43;4.03;;;3.30;;
15633;SDS011;14654;48.898;8.308;2024-03-22T11:41:09;3.63;;;3.30;;
15633;SDS011;14654;48.898;8.308;2024-03-22T11:43:35;3.57;;;3.03;;
15633;SDS011;14654;48.898;8.308;2024-03-22T11:46:01;9.00;;;3.90;;
15633;SDS011;14654;48.898;8.308;2024-03-22T11:48:26;4.30;;;3.30;;
15633;SDS011;14654;48.898;8.308;2024-03-22T11:50:52;3.87;;;3.27;;
15633;SDS011;14654;48.898;8.308;2024-03-22T11:53:17;5.33;;;3.00;;
15633;SDS011;14654;48.898;8.308;2024-03-22T11:55:43;3.30;;;3.00;;
15633;SDS011;14654;48.898;8.308;2024-03-22T11:58:09;3.87;;;3.57;;
15633;SDS011;14654;48.898;8.308;2024-03-22T12:00:35;3.80;;;2.50;;
15633;SDS011;14654;48.898;8.308;2024-03-22T12:03:00;5.50;;;2.67;;
15633;SDS011;14654;48.898;8.308;2024-03-22T12:05:30;2.93;;;2.70;;
15633;SDS011;14654;48.898;8.308;2024-03-22T12:07:56;4.13;;;3.70;;
15633;SDS011;14654;48.898;8.308;2024-03-22T12:10:21;3.60;;;3.20;;
15633;SDS011;14654;48.898;8.308;2024-03-22T12:12:46;3.93;;;2.97;;
15633;SDS011;14654;48.898;8.308;2024-03-22T12:15:12;5.27;;;4.00;;
15633;SDS011;14654;48.898;8.308;2024-03-22T12:17:37;3.50;;;3.20;;
15633;SDS011;14654;48.898;8.308;2024-03-22T12:20:04;3.87;;;3.23;;
15633;SDS011;14654;48.898;8.308;2024-03-22T12:22:33;3.40;;;2.83;;
15633;SDS011;14654;48.898;8.308;2024-03-22T12:24:58;5.53;;;3.20;;
15633;SDS011;14654;48.898;8.308;2024-03-22T12:27:24;5.10;;;2.80;;
15633;SDS011;14654;48.898;8.308;2024-03-22T12:29:49;4.63;;;2.87;;
15633;SDS011;14654;48.898;8.308;2024-03-22T12:32:15;3.20;;;2.70;;
15633;SDS011;14654;48.898;8.308;2024-03-22T12:34:40;3.43;;;3.13;;
15633;SDS011;14654;48.898;8.308;2024-03-22T12:37:05;3.00;;;2.67;;
15633;SDS011;14654;48.898;8.308;2024-03-22T12:39:31;5.20;;;3.27;;
15633;SDS011;14654;48.898;8.308;2024-03-22T12:41:57;3.30;;;3.00;;
15633;SDS011;14654;48.898;8.308;2024-03-22T12:44:22;3.60;;;2.63;;
15633;SDS011;14654;48.898;8.308;2024-03-22T12:46:48;3.10;;;2.80;;
15633;SDS011;14654;48.898;8.308;2024-03-22T12:49:14;3.67;;;3.37;;
15633;SDS011;14654;48.898;8.308;2024-03-22T12:51:39;3.70;;;2.80;;
15633;SDS011;14654;48.898;8.308;2024-03-22T12:54:04;2.97;;;2.60;;
15633;SDS011;14654;48.898;8.308;2024-03-22T12:56:30;3.70;;;3.20;;
15633;SDS011;14654;48.898;8.308;2024-03-22T12:58:56;5.23;;;3.43;;
15633;SDS011;14654;48.898;8.308;2024-03-22T13:01:21;4.23;;;3.07;;
15633;SDS011;14654;48.898;8.308;2024-03-22T13:03:47;4.93;;;2.80;;
15633;SDS011;14654;48.898;8.308;2024-03-22T13:06:12;3.73;;;2.93;;
15633;SDS011;14654;48.898;8.308;2024-03-22T13:08:38;2.90;;;2.70;;
15633;SDS011;14654;48.898;8.308;2024-03-22T13:11:03;5.20;;;3.10;;
15633;SDS011;14654;48.898;8.308;2024-03-22T13:13:29;3.20;;;2.90;;
15633;SDS011;14654;48.898;8.308;2024-03-22T13:15:56;4.10;;;2.53;;
15633;SDS011;14654;48.898;8.308;2024-03-22T13:18:21;2.87;;;2.50;;
15633;SDS011;14654;48.898;8.308;2024-03-22T13:20:47;4.37;;;2.67;;
15633;SDS011;14654;48.898;8.308;2024-03-22T13:23:12;2.63;;;2.43;;
15633;SDS011;14654;48.898;8.308;2024-03-22T13:25:38;2.80;;;2.40;;
15633;SDS011;14654;48.898;8.308;2024-03-22T13:28:03;4.93;;;2.87;;
15633;SDS011;14654;48.898;8.308;2024-03-22T13:30:32;3.37;;;2.50;;
15633;SDS011;14654;48.898;8.308;2024-03-22T13:33:00;4.47;;;2.60;;
15633;SDS011;14654;48.898;8.308;2024-03-22T13:35:25;2.90;;;2.60;;
15633;SDS011;14654;48.898;8.308;2024-03-22T13:37:51;3.30;;;2.70;;
15633;SDS011;14654;48.898;8.308;2024-03-22T13:40:16;3.43;;;2.83;;
15633;SDS011;14654;48.898;8.308;2024-03-22T13:42:42;3.67;;;2.73;;
15633;SDS011;14654;48.898;8.308;2024-03-22T13:45:07;4.30;;;2.73;;
15633;SDS011;14654;48.898;8.308;2024-03-22T13:47:33;2.73;;;2.40;;
15633;SDS011;14654;48.898;8.308;2024-03-22T13:49:58;4.00;;;2.97;;
15633;SDS011;14654;48.898;8.308;2024-03-22T13:52:23;3.20;;;2.57;;
15633;SDS011;14654;48.898;8.308;2024-03-22T13:54:50;3.30;;;2.80;;
15633;SDS011;14654;48.898;8.308;2024-03-22T13:57:16;4.10;;;2.83;;
15633;SDS011;14654;48.898;8.308;2024-03-22T13:59:41;3.10;;;2.80;;
15633;SDS011;14654;48.898;8.308;2024-03-22T14:02:07;3.27;;;2.73;;
15633;SDS011;14654;48.898;8.308;2024-03-22T14:04:35;4.17;;;3.20;;
15633;SDS011;14654;48.898;8.308;2024-03-22T14:07:00;3.23;;;2.90;;
15633;SDS011;14654;48.898;8.308;2024-03-22T14:09:29;4.07;;;3.00;;
15633;SDS011;14654;48.898;8.308;2024-03-22T14:11:58;3.03;;;2.73;;
15633;SDS011;14654;48.898;8.308;2024-03-22T14:14:24;3.73;;;3.13;;
15633;SDS011;14654;48.898;8.308;2024-03-22T14:16:50;4.90;;;3.20;;
15633;SDS011;14654;48.898;8.308;2024-03-22T14:19:15;3.70;;;3.40;;
15633;SDS011;14654;48.898;8.308;2024-03-22T14:21:43;3.37;;;2.70;;
15633;SDS011;14654;48.898;8.308;2024-03-22T14:24:08;3.37;;;3.07;;
15633;SDS011;14654;48.898;8.308;2024-03-22T14:26:33;3.10;;;2.60;;
15633;SDS011;14654;48.898;8.308;2024-03-22T14:28:59;3.93;;;2.97;;
15633;SDS011;14654;48.898;8.308;2024-03-22T14:31:24;3.33;;;2.83;;
15633;SDS011;14654;48.898;8.308;2024-03-22T14:33:49;3.50;;;2.63;;
15633;SDS011;14654;48.898;8.308;2024-03-22T14:36:15;4.20;;;3.17;;
15633;SDS011;14654;48.898;8.308;2024-03-22T14:38:40;4.60;;;3.13;;